sensor_id;sensor_type;location;lat;lon;timestamp;P1;durP1;ratioP1;P2;durP2;ratioP2
9720;SDS011;4899;42.644;23.366;2024-03-06T00:01:04;31.43;;;21.67;;
9720;SDS011;4899;42.644;23.366;2024-03-06T00:03:29;26.53;;;22.53;;
9720;SDS011;4899;42.644;23.366;2024-03-06T00:05:54;29.47;;;21.80;;
9720;SDS011;4899;42.644;23.366;2024-03-06T00:08:20;24.90;;;20.10;;
9720;SDS011;4899;42.644;23.366;2024-03-06T00:10:45;26.87;;;19.97;;
9720;SDS011;4899;42.644;23.366;2024-03-06T00:13:12;29.40;;;20.83;;
9720;SDS011;4899;42.644;23.366;2024-03-06T00:15:37;28.17;;;20.20;;
9720;SDS011;4899;42.644;23.366;2024-03-06T00:18:02;28.00;;;21.33;;
9720;SDS011;4899;42.644;23.366;2024-03-06T00:20:29;28.57;;;21.30;;
9720;SDS011;4899;42.644;23.366;2024-03-06T00:22:54;22.07;;;18.10;;
9720;SDS011;4899;42.644;23.366;2024-03-06T00:25:19;23.10;;;17.63;;
9720;SDS011;4899;42.644;23.366;2024-03-06T00:27:45;24.83;;;17.57;;
9720;SDS011;4899;42.644;23.366;2024-03-06T00:30:10;24.10;;;16.77;;
9720;SDS011;4899;42.644;23.366;2024-03-06T00:32:35;22.77;;;17.87;;
9720;SDS011;4899;42.644;23.366;2024-03-06T00:35:01;21.60;;;16.63;;
9720;SDS011;4899;42.644;23.366;2024-03-06T00:37:26;21.87;;;17.17;;
9720;SDS011;4899;42.644;23.366;2024-03-06T00:39:51;22.17;;;17.33;;
9720;SDS011;4899;42.644;23.366;2024-03-06T00:42:17;23.00;;;16.87;;
9720;SDS011;4899;42.644;23.366;2024-03-06T00:44:42;22.80;;;17.60;;
9720;SDS011;4899;42.644;23.366;2024-03-06T00:47:07;21.63;;;17.03;;
9720;SDS011;4899;42.644;23.366;2024-03-06T00:49:33;22.87;;;17.87;;
9720;SDS011;4899;42.644;23.366;2024-03-06T00:51:58;26.17;;;18.47;;
9720;SDS011;4899;42.644;23.366;2024-03-06T00:54:23;22.33;;;18.23;;
9720;SDS011;4899;42.644;23.366;2024-03-06T00:56:49;25.27;;;19.63;;
9720;SDS011;4899;42.644;23.366;2024-03-06T00:59:14;25.47;;;20.83;;
9720;SDS011;4899;42.644;23.366;2024-03-06T01:01:39;29.47;;;20.60;;
9720;SDS011;4899;42.644;23.366;2024-03-06T01:04:04;31.70;;;23.43;;
9720;SDS011;4899;42.644;23.366;2024-03-06T01:06:30;32.27;;;22.87;;
9720;SDS011;4899;42.644;23.366;2024-03-06T01:08:55;29.23;;;22.47;;
9720;SDS011;4899;42.644;23.366;2024-03-06T01:11:21;32.97;;;24.27;;
9720;SDS011;4899;42.644;23.366;2024-03-06T01:13:47;36.93;;;23.30;;
9720;SDS011;4899;42.644;23.366;2024-03-06T01:16:12;30.73;;;23.13;;
9720;SDS011;4899;42.644;23.366;2024-03-06T01:21:22;33.00;;;22.17;;
9720;SDS011;4899;42.644;23.366;2024-03-06T01:23:47;31.17;;;22.27;;
9720;SDS011;4899;42.644;23.366;2024-03-06T01:26:12;27.53;;;21.93;;
9720;SDS011;4899;42.644;23.366;2024-03-06T01:28:38;32.47;;;21.87;;
9720;SDS011;4899;42.644;23.366;2024-03-06T01:31:03;31.60;;;21.17;;
9720;SDS011;4899;42.644;23.366;2024-03-06T01:33:28;27.67;;;20.53;;
9720;SDS011;4899;42.644;23.366;2024-03-06T01:35:54;33.17;;;21.50;;
9720;SDS011;4899;42.644;23.366;2024-03-06T01:38:19;29.20;;;22.40;;
9720;SDS011;4899;42.644;23.366;2024-03-06T01:40:44;28.90;;;20.63;;
9720;SDS011;4899;42.644;23.366;2024-03-06T01:43:20;29.00;;;22.50;;
9720;SDS011;4899;42.644;23.366;2024-03-06T01:45:47;28.53;;;21.27;;
9720;SDS011;4899;42.644;23.366;2024-03-06T01:48:12;28.53;;;21.93;;
9720;SDS011;4899;42.644;23.366;2024-03-06T01:50:39;26.83;;;20.77;;
9720;SDS011;4899;42.644;23.366;2024-03-06T01:53:04;27.70;;;19.93;;
9720;SDS011;4899;42.644;23.366;2024-03-06T01:55:30;28.87;;;20.83;;
9720;SDS011;4899;42.644;23.366;2024-03-06T01:57:56;27.30;;;21.73;;
9720;SDS011;4899;42.644;23.366;2024-03-06T02:00:21;28.87;;;20.63;;
9720;SDS011;4899;42.644;23.366;2024-03-06T02:02:48;35.23;;;22.33;;
9720;SDS011;4899;42.644;23.366;2024-03-06T02:05:13;32.27;;;22.50;;
9720;SDS011;4899;42.644;23.366;2024-03-06T02:07:39;31.00;;;22.00;;
9720;SDS011;4899;42.644;23.366;2024-03-06T02:10:07;30.57;;;21.87;;
9720;SDS011;4899;42.644;23.366;2024-03-06T02:12:34;29.60;;;22.00;;
9720;SDS011;4899;42.644;23.366;2024-03-06T02:15:00;30.33;;;21.53;;
9720;SDS011;4899;42.644;23.366;2024-03-06T02:17:25;28.93;;;21.40;;
9720;SDS011;4899;42.644;23.366;2024-03-06T02:19:51;29.07;;;21.33;;
9720;SDS011;4899;42.644;23.366;2024-03-06T02:22:16;32.73;;;22.13;;
9720;SDS011;4899;42.644;23.366;2024-03-06T02:24:44;32.83;;;21.87;;
9720;SDS011;4899;42.644;23.366;2024-03-06T02:27:09;29.67;;;21.83;;
9720;SDS011;4899;42.644;23.366;2024-03-06T02:29:35;27.07;;;20.70;;
9720;SDS011;4899;42.644;23.366;2024-03-06T02:32:00;26.23;;;19.57;;
9720;SDS011;4899;42.644;23.366;2024-03-06T02:34:28;29.67;;;22.77;;
9720;SDS011;4899;42.644;23.366;2024-03-06T02:36:55;29.97;;;21.50;;
9720;SDS011;4899;42.644;23.366;2024-03-06T02:39:20;31.43;;;21.27;;
9720;SDS011;4899;42.644;23.366;2024-03-06T02:41:46;28.33;;;21.60;;
9720;SDS011;4899;42.644;23.366;2024-03-06T02:44:12;32.30;;;22.53;;
9720;SDS011;4899;42.644;23.366;2024-03-06T02:46:37;31.00;;;22.47;;
9720;SDS011;4899;42.644;23.366;2024-03-06T02:49:02;31.43;;;23.27;;
9720;SDS011;4899;42.644;23.366;2024-03-06T02:51:28;34.20;;;23.17;;
9720;SDS011;4899;42.644;23.366;2024-03-06T02:53:53;30.07;;;21.67;;
9720;SDS011;4899;42.644;23.366;2024-03-06T02:56:19;35.17;;;24.37;;
9720;SDS011;4899;42.644;23.366;2024-03-06T02:58:44;38.63;;;23.83;;
9720;SDS011;4899;42.644;23.366;2024-03-06T03:01:10;34.20;;;23.70;;
9720;SDS011;4899;42.644;23.366;2024-03-06T03:03:35;34.83;;;23.07;;
9720;SDS011;4899;42.644;23.366;2024-03-06T03:06:01;35.80;;;23.70;;
9720;SDS011;4899;42.644;23.366;2024-03-06T03:08:26;35.60;;;22.77;;
9720;SDS011;4899;42.644;23.366;2024-03-06T03:10:51;29.07;;;21.87;;
9720;SDS011;4899;42.644;23.366;2024-03-06T03:13:17;40.23;;;24.10;;
9720;SDS011;4899;42.644;23.366;2024-03-06T03:15:42;34.20;;;23.10;;
9720;SDS011;4899;42.644;23.366;2024-03-06T03:18:08;36.80;;;25.77;;
9720;SDS011;4899;42.644;23.366;2024-03-06T03:20:33;34.60;;;24.73;;
9720;SDS011;4899;42.644;23.366;2024-03-06T03:22:58;35.83;;;26.07;;
9720;SDS011;4899;42.644;23.366;2024-03-06T03:25:25;34.57;;;24.50;;
9720;SDS011;4899;42.644;23.366;2024-03-06T03:27:50;36.03;;;25.20;;
9720;SDS011;4899;42.644;23.366;2024-03-06T03:30:15;34.60;;;25.27;;
9720;SDS011;4899;42.644;23.366;2024-03-06T03:32:41;35.07;;;24.43;;
9720;SDS011;4899;42.644;23.366;2024-03-06T03:35:06;33.40;;;23.53;;
9720;SDS011;4899;42.644;23.366;2024-03-06T03:37:32;35.13;;;24.83;;
9720;SDS011;4899;42.644;23.366;2024-03-06T03:39:58;34.03;;;23.67;;
9720;SDS011;4899;42.644;23.366;2024-03-06T03:42:23;33.57;;;24.27;;
9720;SDS011;4899;42.644;23.366;2024-03-06T03:44:48;32.53;;;23.93;;
9720;SDS011;4899;42.644;23.366;2024-03-06T03:47:14;33.80;;;23.07;;
9720;SDS011;4899;42.644;23.366;2024-03-06T03:49:39;31.50;;;23.30;;
9720;SDS011;4899;42.644;23.366;2024-03-06T03:52:04;32.27;;;23.00;;
9720;SDS011;4899;42.644;23.366;2024-03-06T03:54:30;35.47;;;24.90;;
9720;SDS011;4899;42.644;23.366;2024-03-06T03:56:55;34.50;;;23.27;;
9720;SDS011;4899;42.644;23.366;2024-03-06T03:59:20;35.23;;;24.10;;
9720;SDS011;4899;42.644;23.366;2024-03-06T04:01:46;39.33;;;25.40;;
9720;SDS011;4899;42.644;23.366;2024-03-06T04:04:15;36.10;;;25.77;;
9720;SDS011;4899;42.644;23.366;2024-03-06T04:06:40;37.97;;;24.90;;
9720;SDS011;4899;42.644;23.366;2024-03-06T04:09:05;34.00;;;24.13;;
9720;SDS011;4899;42.644;23.366;2024-03-06T04:11:31;33.67;;;22.47;;
9720;SDS011;4899;42.644;23.366;2024-03-06T04:13:59;36.90;;;24.23;;
9720;SDS011;4899;42.644;23.366;2024-03-06T04:16:24;34.60;;;24.20;;
9720;SDS011;4899;42.644;23.366;2024-03-06T04:18:49;36.57;;;25.30;;
9720;SDS011;4899;42.644;23.366;2024-03-06T04:21:15;36.33;;;25.43;;
9720;SDS011;4899;42.644;23.366;2024-03-06T04:23:40;42.03;;;27.83;;
9720;SDS011;4899;42.644;23.366;2024-03-06T04:26:05;42.47;;;26.93;;
9720;SDS011;4899;42.644;23.366;2024-03-06T04:28:31;40.10;;;26.50;;
9720;SDS011;4899;42.644;23.366;2024-03-06T04:30:56;43.73;;;27.47;;
9720;SDS011;4899;42.644;23.366;2024-03-06T04:33:22;41.27;;;25.93;;
9720;SDS011;4899;42.644;23.366;2024-03-06T04:35:47;41.17;;;26.13;;
9720;SDS011;4899;42.644;23.366;2024-03-06T04:38:13;41.37;;;25.30;;
9720;SDS011;4899;42.644;23.366;2024-03-06T04:40:39;35.57;;;24.53;;
9720;SDS011;4899;42.644;23.366;2024-03-06T04:43:04;39.30;;;25.50;;
9720;SDS011;4899;42.644;23.366;2024-03-06T04:45:29;35.93;;;23.67;;
9720;SDS011;4899;42.644;23.366;2024-03-06T04:47:55;32.87;;;23.47;;
9720;SDS011;4899;42.644;23.366;2024-03-06T04:50:20;35.97;;;23.73;;
9720;SDS011;4899;42.644;23.366;2024-03-06T04:52:46;31.67;;;22.27;;
9720;SDS011;4899;42.644;23.366;2024-03-06T04:55:11;33.43;;;22.60;;
9720;SDS011;4899;42.644;23.366;2024-03-06T04:57:37;31.73;;;21.93;;
9720;SDS011;4899;42.644;23.366;2024-03-06T05:00:03;29.77;;;21.67;;
9720;SDS011;4899;42.644;23.366;2024-03-06T05:02:33;31.37;;;20.47;;
9720;SDS011;4899;42.644;23.366;2024-03-06T05:05:06;26.60;;;19.40;;
9720;SDS011;4899;42.644;23.366;2024-03-06T05:07:33;26.37;;;19.47;;
9720;SDS011;4899;42.644;23.366;2024-03-06T05:09:58;24.77;;;18.60;;
9720;SDS011;4899;42.644;23.366;2024-03-06T05:12:24;32.20;;;20.57;;
9720;SDS011;4899;42.644;23.366;2024-03-06T05:14:50;32.17;;;23.70;;
9720;SDS011;4899;42.644;23.366;2024-03-06T05:17:15;31.70;;;23.00;;
9720;SDS011;4899;42.644;23.366;2024-03-06T05:19:40;28.13;;;20.93;;
9720;SDS011;4899;42.644;23.366;2024-03-06T05:22:06;28.30;;;22.43;;
9720;SDS011;4899;42.644;23.366;2024-03-06T05:24:31;36.30;;;23.57;;
9720;SDS011;4899;42.644;23.366;2024-03-06T05:26:56;31.83;;;22.17;;
9720;SDS011;4899;42.644;23.366;2024-03-06T05:29:22;31.17;;;23.27;;
9720;SDS011;4899;42.644;23.366;2024-03-06T05:31:47;32.77;;;22.43;;
9720;SDS011;4899;42.644;23.366;2024-03-06T05:34:12;30.77;;;22.43;;
9720;SDS011;4899;42.644;23.366;2024-03-06T05:36:37;31.73;;;22.00;;
9720;SDS011;4899;42.644;23.366;2024-03-06T05:39:03;29.70;;;20.50;;
9720;SDS011;4899;42.644;23.366;2024-03-06T05:41:32;26.50;;;20.50;;
9720;SDS011;4899;42.644;23.366;2024-03-06T05:43:58;30.00;;;21.47;;
9720;SDS011;4899;42.644;23.366;2024-03-06T05:46:23;29.67;;;20.83;;
9720;SDS011;4899;42.644;23.366;2024-03-06T05:48:48;29.20;;;21.20;;
9720;SDS011;4899;42.644;23.366;2024-03-06T05:51:15;26.97;;;19.83;;
9720;SDS011;4899;42.644;23.366;2024-03-06T05:53:40;28.20;;;20.67;;
9720;SDS011;4899;42.644;23.366;2024-03-06T05:56:07;27.93;;;19.50;;
9720;SDS011;4899;42.644;23.366;2024-03-06T05:58:33;23.87;;;19.13;;
9720;SDS011;4899;42.644;23.366;2024-03-06T06:00:59;28.57;;;20.80;;
9720;SDS011;4899;42.644;23.366;2024-03-06T06:03:25;27.30;;;19.73;;
9720;SDS011;4899;42.644;23.366;2024-03-06T06:05:50;25.23;;;20.13;;
9720;SDS011;4899;42.644;23.366;2024-03-06T06:08:15;30.33;;;22.47;;
9720;SDS011;4899;42.644;23.366;2024-03-06T06:10:41;30.33;;;22.20;;
9720;SDS011;4899;42.644;23.366;2024-03-06T06:13:06;32.27;;;23.00;;
9720;SDS011;4899;42.644;23.366;2024-03-06T06:15:31;33.30;;;25.67;;
9720;SDS011;4899;42.644;23.366;2024-03-06T06:17:57;39.77;;;31.97;;
9720;SDS011;4899;42.644;23.366;2024-03-06T06:20:22;44.43;;;36.93;;
9720;SDS011;4899;42.644;23.366;2024-03-06T06:22:47;36.00;;;29.93;;
9720;SDS011;4899;42.644;23.366;2024-03-06T06:25:13;33.63;;;23.73;;
9720;SDS011;4899;42.644;23.366;2024-03-06T06:27:40;34.20;;;24.00;;
9720;SDS011;4899;42.644;23.366;2024-03-06T06:30:06;30.50;;;23.60;;
9720;SDS011;4899;42.644;23.366;2024-03-06T06:32:36;30.00;;;23.83;;
9720;SDS011;4899;42.644;23.366;2024-03-06T06:35:01;30.53;;;24.50;;
9720;SDS011;4899;42.644;23.366;2024-03-06T06:37:27;38.20;;;25.83;;
9720;SDS011;4899;42.644;23.366;2024-03-06T06:39:52;40.03;;;25.10;;
9720;SDS011;4899;42.644;23.366;2024-03-06T06:42:17;32.90;;;25.13;;
9720;SDS011;4899;42.644;23.366;2024-03-06T06:44:42;34.30;;;23.10;;
9720;SDS011;4899;42.644;23.366;2024-03-06T06:47:08;35.50;;;22.90;;
9720;SDS011;4899;42.644;23.366;2024-03-06T06:49:33;26.73;;;20.17;;
9720;SDS011;4899;42.644;23.366;2024-03-06T06:51:59;32.33;;;21.63;;
9720;SDS011;4899;42.644;23.366;2024-03-06T06:54:24;24.57;;;17.97;;
9720;SDS011;4899;42.644;23.366;2024-03-06T06:56:49;22.17;;;17.27;;
9720;SDS011;4899;42.644;23.366;2024-03-06T06:59:15;21.03;;;17.23;;
9720;SDS011;4899;42.644;23.366;2024-03-06T07:01:40;27.57;;;18.70;;
9720;SDS011;4899;42.644;23.366;2024-03-06T07:04:08;21.67;;;17.20;;
9720;SDS011;4899;42.644;23.366;2024-03-06T07:06:33;23.67;;;17.57;;
9720;SDS011;4899;42.644;23.366;2024-03-06T07:08:59;25.27;;;17.73;;
9720;SDS011;4899;42.644;23.366;2024-03-06T07:11:24;22.03;;;17.47;;
9720;SDS011;4899;42.644;23.366;2024-03-06T07:13:50;23.30;;;16.80;;
9720;SDS011;4899;42.644;23.366;2024-03-06T07:16:16;24.90;;;17.00;;
9720;SDS011;4899;42.644;23.366;2024-03-06T07:18:41;17.23;;;15.00;;
9720;SDS011;4899;42.644;23.366;2024-03-06T07:21:06;18.97;;;15.93;;
9720;SDS011;4899;42.644;23.366;2024-03-06T07:23:32;19.67;;;15.70;;
9720;SDS011;4899;42.644;23.366;2024-03-06T07:25:57;20.27;;;14.90;;
9720;SDS011;4899;42.644;23.366;2024-03-06T07:28:24;18.80;;;15.60;;
9720;SDS011;4899;42.644;23.366;2024-03-06T07:30:50;19.90;;;15.17;;
9720;SDS011;4899;42.644;23.366;2024-03-06T07:33:16;19.40;;;16.37;;
9720;SDS011;4899;42.644;23.366;2024-03-06T07:35:41;20.73;;;15.97;;
9720;SDS011;4899;42.644;23.366;2024-03-06T07:38:06;22.77;;;16.90;;
9720;SDS011;4899;42.644;23.366;2024-03-06T07:40:32;23.73;;;17.60;;
9720;SDS011;4899;42.644;23.366;2024-03-06T07:42:57;28.60;;;18.87;;
9720;SDS011;4899;42.644;23.366;2024-03-06T07:45:23;22.70;;;19.03;;
9720;SDS011;4899;42.644;23.366;2024-03-06T07:47:48;23.73;;;20.00;;
9720;SDS011;4899;42.644;23.366;2024-03-06T07:50:13;24.47;;;19.77;;
9720;SDS011;4899;42.644;23.366;2024-03-06T07:52:43;26.17;;;20.07;;
9720;SDS011;4899;42.644;23.366;2024-03-06T07:55:10;25.23;;;21.20;;
9720;SDS011;4899;42.644;23.366;2024-03-06T07:57:35;24.07;;;19.63;;
9720;SDS011;4899;42.644;23.366;2024-03-06T08:00:01;23.70;;;19.37;;
9720;SDS011;4899;42.644;23.366;2024-03-06T08:02:26;26.03;;;19.47;;
9720;SDS011;4899;42.644;23.366;2024-03-06T08:04:53;28.40;;;20.37;;
9720;SDS011;4899;42.644;23.366;2024-03-06T08:07:18;26.50;;;19.67;;
9720;SDS011;4899;42.644;23.366;2024-03-06T08:09:43;30.50;;;21.27;;
9720;SDS011;4899;42.644;23.366;2024-03-06T08:12:09;27.17;;;20.90;;
9720;SDS011;4899;42.644;23.366;2024-03-06T08:14:34;35.83;;;21.17;;
9720;SDS011;4899;42.644;23.366;2024-03-06T08:16:59;26.13;;;21.03;;
9720;SDS011;4899;42.644;23.366;2024-03-06T08:19:25;28.83;;;20.70;;
9720;SDS011;4899;42.644;23.366;2024-03-06T08:21:51;26.37;;;19.63;;
9720;SDS011;4899;42.644;23.366;2024-03-06T08:24:16;29.03;;;21.73;;
9720;SDS011;4899;42.644;23.366;2024-03-06T08:26:42;27.00;;;20.27;;
9720;SDS011;4899;42.644;23.366;2024-03-06T08:29:07;25.03;;;20.37;;
9720;SDS011;4899;42.644;23.366;2024-03-06T08:31:33;29.80;;;22.83;;
9720;SDS011;4899;42.644;23.366;2024-03-06T08:33:58;25.93;;;20.93;;
9720;SDS011;4899;42.644;23.366;2024-03-06T08:36:23;26.93;;;20.93;;
9720;SDS011;4899;42.644;23.366;2024-03-06T08:38:49;26.87;;;20.97;;
9720;SDS011;4899;42.644;23.366;2024-03-06T08:41:17;25.73;;;19.23;;
9720;SDS011;4899;42.644;23.366;2024-03-06T08:43:42;23.23;;;18.87;;
9720;SDS011;4899;42.644;23.366;2024-03-06T08:46:07;26.77;;;20.17;;
9720;SDS011;4899;42.644;23.366;2024-03-06T08:48:33;27.53;;;20.13;;
9720;SDS011;4899;42.644;23.366;2024-03-06T08:50:58;27.50;;;19.20;;
9720;SDS011;4899;42.644;23.366;2024-03-06T08:53:23;22.67;;;19.07;;
9720;SDS011;4899;42.644;23.366;2024-03-06T08:55:49;23.07;;;18.83;;
9720;SDS011;4899;42.644;23.366;2024-03-06T08:58:14;20.13;;;17.57;;
9720;SDS011;4899;42.644;23.366;2024-03-06T09:00:40;28.43;;;18.53;;
9720;SDS011;4899;42.644;23.366;2024-03-06T09:03:05;21.13;;;18.33;;
9720;SDS011;4899;42.644;23.366;2024-03-06T09:05:30;27.80;;;19.37;;
9720;SDS011;4899;42.644;23.366;2024-03-06T09:07:56;20.60;;;17.97;;
9720;SDS011;4899;42.644;23.366;2024-03-06T09:10:22;24.13;;;17.97;;
9720;SDS011;4899;42.644;23.366;2024-03-06T09:12:48;22.60;;;19.20;;
9720;SDS011;4899;42.644;23.366;2024-03-06T09:15:14;22.00;;;15.87;;
9720;SDS011;4899;42.644;23.366;2024-03-06T09:17:39;23.73;;;18.37;;
9720;SDS011;4899;42.644;23.366;2024-03-06T09:20:05;24.47;;;19.77;;
9720;SDS011;4899;42.644;23.366;2024-03-06T09:22:35;24.90;;;20.03;;
9720;SDS011;4899;42.644;23.366;2024-03-06T09:25:01;22.97;;;19.43;;
9720;SDS011;4899;42.644;23.366;2024-03-06T09:27:26;25.80;;;18.43;;
9720;SDS011;4899;42.644;23.366;2024-03-06T09:29:52;25.87;;;19.33;;
9720;SDS011;4899;42.644;23.366;2024-03-06T09:32:17;25.57;;;18.87;;
9720;SDS011;4899;42.644;23.366;2024-03-06T09:34:44;26.10;;;18.47;;
9720;SDS011;4899;42.644;23.366;2024-03-06T09:37:09;21.37;;;15.90;;
9720;SDS011;4899;42.644;23.366;2024-03-06T09:39:35;22.50;;;16.07;;
9720;SDS011;4899;42.644;23.366;2024-03-06T09:42:00;21.10;;;16.80;;
9720;SDS011;4899;42.644;23.366;2024-03-06T09:44:26;19.40;;;15.80;;
9720;SDS011;4899;42.644;23.366;2024-03-06T09:46:52;19.13;;;14.93;;
9720;SDS011;4899;42.644;23.366;2024-03-06T09:49:18;18.67;;;15.13;;
9720;SDS011;4899;42.644;23.366;2024-03-06T09:51:46;20.53;;;14.53;;
9720;SDS011;4899;42.644;23.366;2024-03-06T09:54:13;17.80;;;14.73;;
9720;SDS011;4899;42.644;23.366;2024-03-06T09:56:40;17.40;;;13.67;;
9720;SDS011;4899;42.644;23.366;2024-03-06T09:59:05;17.70;;;14.50;;
9720;SDS011;4899;42.644;23.366;2024-03-06T10:01:31;16.87;;;13.53;;
9720;SDS011;4899;42.644;23.366;2024-03-06T10:03:56;15.47;;;13.00;;
9720;SDS011;4899;42.644;23.366;2024-03-06T10:06:22;12.47;;;11.17;;
9720;SDS011;4899;42.644;23.366;2024-03-06T10:08:47;12.93;;;11.40;;
9720;SDS011;4899;42.644;23.366;2024-03-06T10:11:14;13.90;;;10.97;;
9720;SDS011;4899;42.644;23.366;2024-03-06T10:13:39;15.63;;;12.07;;
9720;SDS011;4899;42.644;23.366;2024-03-06T10:16:05;14.23;;;11.63;;
9720;SDS011;4899;42.644;23.366;2024-03-06T10:18:34;12.57;;;11.33;;
9720;SDS011;4899;42.644;23.366;2024-03-06T10:21:00;14.07;;;10.33;;
9720;SDS011;4899;42.644;23.366;2024-03-06T10:23:29;15.73;;;10.90;;
9720;SDS011;4899;42.644;23.366;2024-03-06T10:25:54;14.00;;;10.70;;
9720;SDS011;4899;42.644;23.366;2024-03-06T10:28:20;12.10;;;9.97;;
9720;SDS011;4899;42.644;23.366;2024-03-06T10:30:49;11.63;;;9.63;;
9720;SDS011;4899;42.644;23.366;2024-03-06T10:33:15;15.50;;;10.40;;
9720;SDS011;4899;42.644;23.366;2024-03-06T10:35:44;12.37;;;9.97;;
9720;SDS011;4899;42.644;23.366;2024-03-06T10:38:09;12.77;;;10.10;;
9720;SDS011;4899;42.644;23.366;2024-03-06T10:40:39;13.80;;;9.20;;
9720;SDS011;4899;42.644;23.366;2024-03-06T10:43:05;12.43;;;7.83;;
9720;SDS011;4899;42.644;23.366;2024-03-06T10:45:41;12.17;;;9.20;;
9720;SDS011;4899;42.644;23.366;2024-03-06T10:48:12;11.67;;;8.90;;
9720;SDS011;4899;42.644;23.366;2024-03-06T10:50:41;12.67;;;8.57;;
9720;SDS011;4899;42.644;23.366;2024-03-06T10:53:09;12.17;;;9.20;;
9720;SDS011;4899;42.644;23.366;2024-03-06T10:55:38;13.67;;;9.50;;
9720;SDS011;4899;42.644;23.366;2024-03-06T10:58:05;10.83;;;8.03;;
9720;SDS011;4899;42.644;23.366;2024-03-06T11:00:33;8.50;;;7.60;;
9720;SDS011;4899;42.644;23.366;2024-03-06T11:03:00;8.50;;;7.57;;
9720;SDS011;4899;42.644;23.366;2024-03-06T11:05:28;8.87;;;8.00;;
9720;SDS011;4899;42.644;23.366;2024-03-06T11:07:54;10.47;;;7.83;;
9720;SDS011;4899;42.644;23.366;2024-03-06T11:10:39;8.40;;;7.63;;
9720;SDS011;4899;42.644;23.366;2024-03-06T11:15:42;11.50;;;6.40;;
9720;SDS011;4899;42.644;23.366;2024-03-06T11:20:52;10.43;;;7.57;;
9720;SDS011;4899;42.644;23.366;2024-03-06T11:23:17;8.97;;;6.90;;
9720;SDS011;4899;42.644;23.366;2024-03-06T11:28:23;8.43;;;7.57;;
9720;SDS011;4899;42.644;23.366;2024-03-06T11:33:20;8.30;;;6.80;;
9720;SDS011;4899;42.644;23.366;2024-03-06T11:38:30;8.97;;;7.37;;
9720;SDS011;4899;42.644;23.366;2024-03-06T11:40:55;8.10;;;7.37;;
9720;SDS011;4899;42.644;23.366;2024-03-06T11:43:23;9.37;;;6.83;;
9720;SDS011;4899;42.644;23.366;2024-03-06T11:45:49;8.07;;;7.37;;
9720;SDS011;4899;42.644;23.366;2024-03-06T11:48:15;8.23;;;7.40;;
9720;SDS011;4899;42.644;23.366;2024-03-06T11:50:44;8.17;;;7.30;;
9720;SDS011;4899;42.644;23.366;2024-03-06T11:53:10;8.10;;;7.30;;
9720;SDS011;4899;42.644;23.366;2024-03-06T11:55:36;8.43;;;7.70;;
9720;SDS011;4899;42.644;23.366;2024-03-06T11:58:01;8.60;;;7.67;;
9720;SDS011;4899;42.644;23.366;2024-03-06T12:00:29;10.13;;;8.30;;
9720;SDS011;4899;42.644;23.366;2024-03-06T12:02:55;8.50;;;7.57;;
9720;SDS011;4899;42.644;23.366;2024-03-06T12:05:20;8.73;;;7.80;;
9720;SDS011;4899;42.644;23.366;2024-03-06T12:07:50;9.20;;;7.38;;
9720;SDS011;4899;42.644;23.366;2024-03-06T12:10:16;8.32;;;7.53;;
9720;SDS011;4899;42.644;23.366;2024-03-06T12:12:41;12.52;;;8.13;;
9720;SDS011;4899;42.644;23.366;2024-03-06T12:15:09;8.00;;;7.20;;
9720;SDS011;4899;42.644;23.366;2024-03-06T12:17:41;7.53;;;6.75;;
9720;SDS011;4899;42.644;23.366;2024-03-06T12:20:11;7.63;;;6.57;;
9720;SDS011;4899;42.644;23.366;2024-03-06T12:22:43;7.18;;;6.55;;
9720;SDS011;4899;42.644;23.366;2024-03-06T12:25:08;7.82;;;7.03;;
9720;SDS011;4899;42.644;23.366;2024-03-06T12:27:33;8.02;;;7.22;;
9720;SDS011;4899;42.644;23.366;2024-03-06T12:29:59;8.55;;;7.45;;
9720;SDS011;4899;42.644;23.366;2024-03-06T12:32:24;7.90;;;7.10;;
9720;SDS011;4899;42.644;23.366;2024-03-06T12:34:57;8.63;;;6.78;;
9720;SDS011;4899;42.644;23.366;2024-03-06T12:37:32;7.95;;;7.25;;
9720;SDS011;4899;42.644;23.366;2024-03-06T12:39:57;7.95;;;6.93;;
9720;SDS011;4899;42.644;23.366;2024-03-06T12:42:23;7.18;;;6.50;;
9720;SDS011;4899;42.644;23.366;2024-03-06T12:44:51;7.47;;;6.78;;
9720;SDS011;4899;42.644;23.366;2024-03-06T12:47:17;9.25;;;7.15;;
9720;SDS011;4899;42.644;23.366;2024-03-06T12:49:42;7.63;;;6.85;;
9720;SDS011;4899;42.644;23.366;2024-03-06T12:52:07;7.53;;;6.63;;
9720;SDS011;4899;42.644;23.366;2024-03-06T12:54:34;8.73;;;6.20;;
9720;SDS011;4899;42.644;23.366;2024-03-06T12:56:59;7.80;;;6.60;;
9720;SDS011;4899;42.644;23.366;2024-03-06T12:59:24;7.63;;;6.60;;
9720;SDS011;4899;42.644;23.366;2024-03-06T13:01:50;9.15;;;6.45;;
9720;SDS011;4899;42.644;23.366;2024-03-06T13:04:15;7.30;;;6.13;;
9720;SDS011;4899;42.644;23.366;2024-03-06T13:06:41;7.27;;;5.97;;
9720;SDS011;4899;42.644;23.366;2024-03-06T13:09:06;7.43;;;6.73;;
9720;SDS011;4899;42.644;23.366;2024-03-06T13:11:32;7.23;;;6.13;;
9720;SDS011;4899;42.644;23.366;2024-03-06T13:13:57;7.57;;;6.20;;
9720;SDS011;4899;42.644;23.366;2024-03-06T13:16:23;8.37;;;6.10;;
9720;SDS011;4899;42.644;23.366;2024-03-06T13:18:48;6.87;;;5.70;;
9720;SDS011;4899;42.644;23.366;2024-03-06T13:21:14;9.93;;;6.30;;
9720;SDS011;4899;42.644;23.366;2024-03-06T13:23:40;6.93;;;4.67;;
9720;SDS011;4899;42.644;23.366;2024-03-06T13:26:05;6.37;;;5.10;;
9720;SDS011;4899;42.644;23.366;2024-03-06T13:28:31;5.70;;;5.13;;
9720;SDS011;4899;42.644;23.366;2024-03-06T13:30:56;7.40;;;4.68;;
9720;SDS011;4899;42.644;23.366;2024-03-06T13:33:21;7.43;;;5.03;;
9720;SDS011;4899;42.644;23.366;2024-03-06T13:35:48;6.22;;;4.78;;
9720;SDS011;4899;42.644;23.366;2024-03-06T13:38:14;5.75;;;4.88;;
9720;SDS011;4899;42.644;23.366;2024-03-06T13:40:39;5.47;;;4.82;;
9720;SDS011;4899;42.644;23.366;2024-03-06T13:43:04;5.22;;;4.72;;
9720;SDS011;4899;42.644;23.366;2024-03-06T13:45:30;6.00;;;5.03;;
9720;SDS011;4899;42.644;23.366;2024-03-06T13:47:55;5.35;;;4.85;;
9720;SDS011;4899;42.644;23.366;2024-03-06T13:50:20;5.40;;;4.85;;
9720;SDS011;4899;42.644;23.366;2024-03-06T13:52:48;6.10;;;4.88;;
9720;SDS011;4899;42.644;23.366;2024-03-06T13:55:14;6.63;;;4.40;;
9720;SDS011;4899;42.644;23.366;2024-03-06T13:57:39;4.53;;;3.87;;
9720;SDS011;4899;42.644;23.366;2024-03-06T14:00:05;5.90;;;4.87;;
9720;SDS011;4899;42.644;23.366;2024-03-06T14:02:31;5.77;;;4.70;;
9720;SDS011;4899;42.644;23.366;2024-03-06T14:04:57;5.27;;;4.77;;
9720;SDS011;4899;42.644;23.366;2024-03-06T14:07:22;5.00;;;4.50;;
9720;SDS011;4899;42.644;23.366;2024-03-06T14:09:48;5.20;;;4.70;;
9720;SDS011;4899;42.644;23.366;2024-03-06T14:12:14;5.33;;;4.73;;
9720;SDS011;4899;42.644;23.366;2024-03-06T14:14:39;7.60;;;4.60;;
9720;SDS011;4899;42.644;23.366;2024-03-06T14:17:05;6.00;;;5.20;;
9720;SDS011;4899;42.644;23.366;2024-03-06T14:19:30;5.77;;;5.23;;
9720;SDS011;4899;42.644;23.366;2024-03-06T14:21:55;6.87;;;6.17;;
9720;SDS011;4899;42.644;23.366;2024-03-06T14:24:21;6.80;;;5.77;;
9720;SDS011;4899;42.644;23.366;2024-03-06T14:26:46;7.97;;;6.93;;
9720;SDS011;4899;42.644;23.366;2024-03-06T14:29:11;6.30;;;5.70;;
9720;SDS011;4899;42.644;23.366;2024-03-06T14:31:37;6.60;;;5.67;;
9720;SDS011;4899;42.644;23.366;2024-03-06T14:34:02;6.43;;;5.40;;
9720;SDS011;4899;42.644;23.366;2024-03-06T14:36:27;6.47;;;5.80;;
9720;SDS011;4899;42.644;23.366;2024-03-06T14:38:53;7.27;;;5.90;;
9720;SDS011;4899;42.644;23.366;2024-03-06T14:41:19;6.67;;;5.00;;
9720;SDS011;4899;42.644;23.366;2024-03-06T14:43:45;7.40;;;5.33;;
9720;SDS011;4899;42.644;23.366;2024-03-06T14:46:10;5.27;;;4.77;;
9720;SDS011;4899;42.644;23.366;2024-03-06T14:48:37;6.03;;;5.13;;